createdAt,value
2023-05-10T00:02:17.255Z,14.12
2023-05-10T00:04:45.243Z,14.07
2023-05-10T00:07:13.172Z,14.05
2023-05-10T00:09:41.144Z,14.03
2023-05-10T00:12:09.166Z,14.03
2023-05-10T00:14:37.684Z,14.00
2023-05-10T00:17:05.665Z,14.00
2023-05-10T00:19:33.621Z,14.02
2023-05-10T00:22:01.510Z,14.01
2023-05-10T00:24:29.612Z,13.98
2023-05-10T00:26:57.602Z,13.95
2023-05-10T00:29:25.662Z,13.91
2023-05-10T00:31:53.767Z,13.88
2023-05-10T00:34:21.698Z,13.87
2023-05-10T00:36:49.715Z,13.86
2023-05-10T00:39:17.615Z,13.84
2023-05-10T00:41:45.578Z,13.82
2023-05-10T00:44:13.649Z,13.80
2023-05-10T00:46:41.623Z,13.71
2023-05-10T00:49:09.592Z,13.68
2023-05-10T00:51:37.626Z,13.67
2023-05-10T00:54:05.749Z,13.69
2023-05-10T00:56:33.733Z,13.70
2023-05-10T00:59:02.004Z,13.65
2023-05-10T01:01:30.468Z,13.58
2023-05-10T01:03:58.460Z,13.56
2023-05-10T01:06:26.430Z,13.50
2023-05-10T01:08:54.413Z,13.50
2023-05-10T01:11:23.294Z,13.48
2023-05-10T01:13:55.151Z,13.45
2023-05-10T01:16:23.243Z,13.47
2023-05-10T01:18:51.392Z,13.44
2023-05-10T01:21:44.201Z,13.44
2023-05-10T01:24:34.716Z,13.41
2023-05-10T01:27:17.994Z,13.39
2023-05-10T01:30:15.341Z,13.38
2023-05-10T01:32:58.791Z,13.35
2023-05-10T01:35:34.308Z,13.32
2023-05-10T01:38:10.141Z,13.35
2023-05-10T01:40:51.087Z,13.36
2023-05-10T01:43:25.529Z,13.36
2023-05-10T01:46:00.375Z,13.35
2023-05-10T01:48:29.587Z,13.33
2023-05-10T01:50:57.644Z,13.33
2023-05-10T01:53:25.632Z,13.36
2023-05-10T01:55:54.824Z,13.35
2023-05-10T01:58:25.281Z,13.35
2023-05-10T02:00:53.424Z,13.37
2023-05-10T02:03:26.122Z,13.37
2023-05-10T02:05:54.730Z,13.35
2023-05-10T02:08:22.776Z,13.37
2023-05-10T02:10:51.526Z,13.38
2023-05-10T02:13:19.851Z,13.35
2023-05-10T02:15:50.076Z,13.38
2023-05-10T02:18:18.362Z,13.39
2023-05-10T02:20:47.792Z,13.40
2023-05-10T02:23:16.158Z,13.41
2023-05-10T02:25:44.308Z,13.37
2023-05-10T02:28:12.310Z,13.38
2023-05-10T02:30:40.350Z,13.36
2023-05-10T02:33:08.310Z,13.37
2023-05-10T02:35:36.349Z,13.38
2023-05-10T02:38:04.378Z,13.37
2023-05-10T02:40:32.322Z,13.37
2023-05-10T02:43:01.102Z,13.37
2023-05-10T02:45:31.027Z,13.37
2023-05-10T02:47:59.233Z,13.35
2023-05-10T02:50:29.725Z,13.36
2023-05-10T02:53:02.167Z,13.37
2023-05-10T02:55:34.789Z,13.38
2023-05-10T02:58:03.949Z,13.39
2023-05-10T03:00:31.972Z,13.38
2023-05-10T03:03:00.122Z,13.41
2023-05-10T03:05:28.131Z,13.41
2023-05-10T03:07:56.043Z,13.41
2023-05-10T03:10:26.527Z,13.42
2023-05-10T03:13:06.738Z,13.40
2023-05-10T03:15:51.043Z,13.38
2023-05-10T03:18:23.745Z,13.33
2023-05-10T03:20:58.346Z,13.27
2023-05-10T03:23:30.297Z,13.31
2023-05-10T03:25:58.308Z,13.30
2023-05-10T03:28:26.463Z,13.32
2023-05-10T03:30:55.144Z,13.32
2023-05-10T03:33:23.106Z,13.30
2023-05-10T03:35:50.993Z,13.31
2023-05-10T03:38:18.932Z,13.33
2023-05-10T03:40:46.850Z,13.29
2023-05-10T03:43:14.849Z,13.32
2023-05-10T03:45:42.798Z,13.34
2023-05-10T03:48:10.853Z,13.33
2023-05-10T03:50:38.868Z,13.32
2023-05-10T03:53:06.805Z,13.33
2023-05-10T03:55:36.848Z,13.35
2023-05-10T03:58:04.855Z,13.35
2023-05-10T04:00:33.360Z,13.32
2023-05-10T04:03:01.420Z,13.33
2023-05-10T04:05:29.502Z,13.31
2023-05-10T04:07:57.486Z,13.32
2023-05-10T04:10:25.487Z,13.32
2023-05-10T04:12:53.526Z,13.33
2023-05-10T04:15:21.778Z,13.33
2023-05-10T04:17:49.913Z,13.32
2023-05-10T04:20:18.266Z,13.34
2023-05-10T04:22:46.412Z,13.34
2023-05-10T04:25:14.503Z,13.33
2023-05-10T04:27:42.464Z,13.32
2023-05-10T04:30:11.250Z,13.33
2023-05-10T04:32:39.420Z,13.31
2023-05-10T04:35:07.990Z,13.32
2023-05-10T04:37:35.899Z,13.35
2023-05-10T04:40:04.434Z,13.34
2023-05-10T04:42:32.372Z,13.35
2023-05-10T04:45:00.334Z,13.37
2023-05-10T04:47:28.258Z,13.39
2023-05-10T04:49:56.329Z,13.37
2023-05-10T04:52:24.441Z,13.40
2023-05-10T04:54:53.224Z,13.39
2023-05-10T04:57:21.244Z,13.40
2023-05-10T04:59:50.471Z,13.40
2023-05-10T05:02:18.674Z,13.43
2023-05-10T05:04:46.643Z,13.43
2023-05-10T05:07:14.707Z,13.44
2023-05-10T05:09:42.745Z,13.44
2023-05-10T05:12:10.981Z,13.45
2023-05-10T05:14:38.976Z,13.45
2023-05-10T05:17:07.246Z,13.46
2023-05-10T05:19:35.258Z,13.47
2023-05-10T05:22:03.224Z,13.50
2023-05-10T05:24:31.195Z,13.50
2023-05-10T05:26:59.161Z,13.51
2023-05-10T05:29:27.072Z,13.51
2023-05-10T05:31:55.607Z,13.53
2023-05-10T05:34:24.476Z,13.51
2023-05-10T05:36:52.464Z,13.49
2023-05-10T05:39:20.462Z,13.50
2023-05-10T05:41:48.733Z,13.51
2023-05-10T05:44:16.740Z,13.51
2023-05-10T05:46:44.759Z,13.51
2023-05-10T05:49:12.730Z,13.51
2023-05-10T05:51:40.709Z,13.49
2023-05-10T05:54:08.696Z,13.46
2023-05-10T05:56:36.686Z,13.48
2023-05-10T05:59:04.728Z,13.50
2023-05-10T06:01:32.752Z,13.52
2023-05-10T06:04:00.897Z,13.51
2023-05-10T06:06:29.409Z,13.51
2023-05-10T06:08:57.443Z,13.51
2023-05-10T06:11:25.478Z,13.52
2023-05-10T06:13:53.538Z,13.55
2023-05-10T06:16:21.581Z,13.55
2023-05-10T06:18:49.682Z,13.55
2023-05-10T06:21:18.461Z,13.54
2023-05-10T06:23:46.548Z,13.52
2023-05-10T06:26:14.774Z,13.52
2023-05-10T06:28:43.140Z,13.52
2023-05-10T06:31:11.250Z,13.56
2023-05-10T06:33:39.359Z,13.58
2023-05-10T06:36:07.726Z,13.60
2023-05-10T06:38:35.743Z,13.61
2023-05-10T06:41:03.732Z,13.62
2023-05-10T06:43:31.809Z,13.63
2023-05-10T06:46:00.008Z,13.66
2023-05-10T06:48:28.030Z,13.66
2023-05-10T06:50:56.166Z,13.69
2023-05-10T06:53:24.248Z,13.69
2023-05-10T06:55:52.610Z,13.73
2023-05-10T06:58:20.604Z,13.73
2023-05-10T07:00:49.665Z,13.75
2023-05-10T07:03:18.236Z,13.75
2023-05-10T07:05:46.265Z,13.74
2023-05-10T07:08:14.305Z,13.78
2023-05-10T07:10:42.271Z,13.90
2023-05-10T07:13:10.530Z,14.14
2023-05-10T07:15:38.640Z,14.34
2023-05-10T07:18:08.825Z,14.36
2023-05-10T07:20:36.886Z,14.49
2023-05-10T07:23:04.850Z,14.62
2023-05-10T07:25:33.099Z,14.60
2023-05-10T07:28:01.056Z,14.53
2023-05-10T07:30:29.191Z,14.56
2023-05-10T07:32:57.390Z,14.49
2023-05-10T07:35:25.312Z,14.42
2023-05-10T07:37:53.360Z,14.40
2023-05-10T07:40:21.540Z,14.37
2023-05-10T07:42:49.490Z,14.35
2023-05-10T07:45:17.663Z,14.35
2023-05-10T07:47:46.002Z,14.32
2023-05-10T07:50:14.042Z,14.32
2023-05-10T07:52:42.090Z,14.38
2023-05-10T07:55:10.657Z,14.34
2023-05-10T07:57:38.790Z,14.40
2023-05-10T08:00:07.394Z,14.40
2023-05-10T08:02:38.167Z,14.36
2023-05-10T08:05:07.664Z,14.33
2023-05-10T08:07:36.139Z,14.38
2023-05-10T08:10:05.059Z,14.39
2023-05-10T08:12:33.028Z,14.42
2023-05-10T08:15:00.997Z,14.44
2023-05-10T08:17:29.066Z,14.49
2023-05-10T08:19:57.070Z,14.48
2023-05-10T08:22:25.176Z,14.49
2023-05-10T08:24:53.208Z,14.45
2023-05-10T08:27:21.194Z,14.59
2023-05-10T08:29:50.629Z,14.71
2023-05-10T08:32:19.300Z,14.66
2023-05-10T08:34:47.284Z,14.71
2023-05-10T08:37:15.458Z,14.75
2023-05-10T08:39:43.550Z,14.80
2023-05-10T08:42:11.751Z,14.87
2023-05-10T08:44:39.848Z,14.78
2023-05-10T08:47:11.202Z,14.74
2023-05-10T08:49:39.305Z,14.71
2023-05-10T08:52:08.073Z,14.67
2023-05-10T08:54:36.629Z,14.70
2023-05-10T08:57:05.007Z,14.74
2023-05-10T08:59:33.267Z,14.78
2023-05-10T09:02:02.140Z,14.78
2023-05-10T09:04:30.850Z,14.86
2023-05-10T09:06:59.442Z,14.94
2023-05-10T09:09:27.685Z,14.95
2023-05-10T09:11:56.122Z,14.89
2023-05-10T09:14:24.197Z,14.87
2023-05-10T09:16:52.357Z,14.83
2023-05-10T09:19:20.722Z,14.86
2023-05-10T09:21:48.906Z,15.02
2023-05-10T09:24:17.224Z,15.17
2023-05-10T09:26:50.316Z,15.17
2023-05-10T09:29:18.747Z,15.23
2023-05-10T09:31:48.913Z,15.26
2023-05-10T09:34:21.495Z,15.21
2023-05-10T09:37:07.676Z,15.14
2023-05-10T09:39:36.656Z,15.30
2023-05-10T09:42:11.655Z,15.36
2023-05-10T09:44:40.777Z,15.45
2023-05-10T09:47:09.009Z,15.57
2023-05-10T09:49:37.467Z,15.66
2023-05-10T09:52:09.969Z,15.71
2023-05-10T09:54:38.798Z,15.78
2023-05-10T09:57:07.476Z,15.89
2023-05-10T09:59:37.227Z,15.88
2023-05-10T10:02:05.578Z,15.98
2023-05-10T10:04:34.074Z,16.01
2023-05-10T10:07:05.778Z,16.00
2023-05-10T10:09:34.654Z,16.14
2023-05-10T10:12:04.535Z,16.31
2023-05-10T10:14:32.726Z,16.37
2023-05-10T10:17:08.259Z,16.29
2023-05-10T10:19:38.207Z,16.37
2023-05-10T10:22:07.067Z,16.57
2023-05-10T10:24:35.616Z,16.64
2023-05-10T10:27:24.580Z,16.57
2023-05-10T10:29:55.863Z,16.52
2023-05-10T10:32:56.871Z,16.48
2023-05-10T10:35:25.521Z,16.59
2023-05-10T10:37:53.888Z,16.64
2023-05-10T10:40:29.174Z,16.68
2023-05-10T10:42:58.056Z,16.72
2023-05-10T10:45:26.891Z,16.69
2023-05-10T10:48:26.019Z,16.60
2023-05-10T10:51:00.707Z,16.32
2023-05-10T10:53:30.949Z,16.44
2023-05-10T10:56:12.809Z,16.43
2023-05-10T10:58:41.126Z,16.44
2023-05-10T11:01:20.585Z,16.46
2023-05-10T11:04:01.215Z,16.41
2023-05-10T11:06:36.806Z,16.45
2023-05-10T11:09:12.531Z,16.46
2023-05-10T11:11:57.720Z,16.37
2023-05-10T11:14:25.927Z,16.37
2023-05-10T11:16:54.425Z,16.43
2023-05-10T11:19:22.725Z,16.43
2023-05-10T11:22:08.130Z,16.14
2023-05-10T11:24:36.227Z,15.82
2023-05-10T11:27:04.651Z,15.75
2023-05-10T11:29:32.956Z,15.86
2023-05-10T11:32:01.348Z,15.88
2023-05-10T11:34:32.580Z,15.86
2023-05-10T11:37:00.886Z,15.82
2023-05-10T11:39:30.110Z,15.80
2023-05-10T11:41:58.715Z,15.82
2023-05-10T11:44:32.583Z,15.80
2023-05-10T11:47:02.614Z,15.79
2023-05-10T11:49:30.868Z,15.78
2023-05-10T11:52:19.522Z,15.72
2023-05-10T11:54:57.436Z,15.62
2023-05-10T11:57:28.759Z,15.65
2023-05-10T11:59:57.700Z,15.53
2023-05-10T12:02:26.005Z,15.67
2023-05-10T12:04:54.468Z,15.78
2023-05-10T12:07:22.637Z,15.67
2023-05-10T12:10:10.748Z,15.58
2023-05-10T12:12:49.936Z,15.75
2023-05-10T12:15:25.389Z,15.74
2023-05-10T12:17:53.776Z,15.81
2023-05-10T12:20:26.367Z,15.98
2023-05-10T12:23:00.505Z,16.03
2023-05-10T12:25:35.688Z,15.96
2023-05-10T12:28:06.623Z,16.03
2023-05-10T12:30:35.607Z,16.17
2023-05-10T12:33:14.476Z,16.28
2023-05-10T12:35:53.130Z,16.36
2023-05-10T12:38:33.959Z,16.40
2023-05-10T12:41:02.935Z,16.48
2023-05-10T12:43:31.109Z,16.52
2023-05-10T12:45:59.501Z,16.55
2023-05-10T12:48:27.967Z,16.57
2023-05-10T12:50:56.289Z,16.60
2023-05-10T12:53:24.481Z,16.60
2023-05-10T12:55:52.538Z,16.68
2023-05-10T12:58:34.442Z,16.67
2023-05-10T13:01:03.815Z,16.71
2023-05-10T13:03:32.150Z,16.77
2023-05-10T13:06:00.791Z,16.83
2023-05-10T13:08:29.096Z,16.86
2023-05-10T13:10:57.306Z,16.93
2023-05-10T13:13:25.446Z,16.96
2023-05-10T13:15:53.754Z,17.01
2023-05-10T13:18:22.411Z,17.04
2023-05-10T13:20:52.134Z,17.01
2023-05-10T13:23:20.402Z,17.02
2023-05-10T13:25:48.564Z,17.02
2023-05-10T13:28:16.853Z,17.08
2023-05-10T13:30:45.544Z,17.08
2023-05-10T13:33:14.392Z,17.13
2023-05-10T13:35:43.025Z,17.00
2023-05-10T13:38:12.230Z,17.06
2023-05-10T13:40:43.572Z,17.05
2023-05-10T13:43:12.169Z,17.13
2023-05-10T13:45:41.458Z,17.21
2023-05-10T13:48:09.929Z,17.25
2023-05-10T13:50:38.320Z,17.29
2023-05-10T13:53:07.111Z,17.30
2023-05-10T13:55:36.084Z,17.30
2023-05-10T13:58:04.252Z,17.35
2023-05-10T14:00:33.247Z,17.38
2023-05-10T14:03:01.735Z,17.40
2023-05-10T14:05:30.038Z,17.33
2023-05-10T14:07:58.620Z,17.33
2023-05-10T14:10:26.960Z,17.31
2023-05-10T14:12:55.302Z,17.29
2023-05-10T14:15:23.631Z,17.28
2023-05-10T14:17:51.819Z,17.28
2023-05-10T14:20:20.102Z,17.25
2023-05-10T14:22:48.305Z,17.24
2023-05-10T14:25:17.137Z,17.24
2023-05-10T14:27:45.523Z,17.22
2023-05-10T14:30:14.354Z,17.19
2023-05-10T14:32:42.585Z,17.14
2023-05-10T14:35:13.129Z,17.11
2023-05-10T14:37:41.858Z,17.09
2023-05-10T14:40:11.850Z,17.06
2023-05-10T14:42:39.987Z,17.04
2023-05-10T14:45:08.492Z,16.97
2023-05-10T14:47:36.641Z,16.94
2023-05-10T14:50:04.869Z,16.89
2023-05-10T14:52:34.443Z,16.81
2023-05-10T14:55:03.734Z,16.79
2023-05-10T14:57:32.127Z,16.74
2023-05-10T15:00:00.570Z,16.75
2023-05-10T15:02:29.418Z,16.74
2023-05-10T15:04:58.410Z,16.74
2023-05-10T15:07:26.964Z,16.68
2023-05-10T15:09:55.614Z,16.67
2023-05-10T15:12:23.780Z,16.62
2023-05-10T15:14:51.993Z,16.63
2023-05-10T15:17:20.299Z,16.62
2023-05-10T15:19:48.314Z,16.64
2023-05-10T15:22:16.497Z,16.61
2023-05-10T15:24:55.878Z,16.59
2023-05-10T15:27:28.835Z,16.56
2023-05-10T15:29:57.751Z,16.54
2023-05-10T15:32:26.230Z,16.48
2023-05-10T15:34:54.538Z,16.31
2023-05-10T15:37:23.648Z,16.14
2023-05-10T15:39:52.231Z,16.21
2023-05-10T15:42:20.486Z,16.14
2023-05-10T15:44:52.444Z,16.11
2023-05-10T15:47:20.549Z,16.06
2023-05-10T15:49:48.823Z,16.00
2023-05-10T15:52:17.300Z,15.93
2023-05-10T15:54:45.337Z,15.98
2023-05-10T15:57:13.501Z,15.99
2023-05-10T15:59:41.572Z,16.05
2023-05-10T16:02:10.642Z,16.08
2023-05-10T16:04:39.244Z,16.08
2023-05-10T16:07:07.346Z,16.04
2023-05-10T16:09:35.367Z,16.08
2023-05-10T16:12:04.042Z,16.11
2023-05-10T16:14:32.183Z,16.10
2023-05-10T16:17:00.403Z,16.01
2023-05-10T16:19:30.157Z,16.03
2023-05-10T16:21:58.337Z,16.01
2023-05-10T16:24:27.244Z,16.02
2023-05-10T16:26:55.244Z,16.04
2023-05-10T16:29:23.248Z,16.01
2023-05-10T16:31:51.284Z,15.99
2023-05-10T16:34:19.361Z,15.95
2023-05-10T16:36:47.384Z,15.92
2023-05-10T16:39:15.543Z,15.94
2023-05-10T16:41:43.656Z,15.91
2023-05-10T16:44:11.784Z,15.92
2023-05-10T16:46:39.972Z,15.79
2023-05-10T16:49:08.227Z,15.71
2023-05-10T16:51:36.253Z,15.70
2023-05-10T16:54:04.306Z,15.74
2023-05-10T16:56:32.344Z,15.70
2023-05-10T16:59:00.356Z,15.68
2023-05-10T17:01:28.364Z,15.57
2023-05-10T17:03:56.817Z,15.50
2023-05-10T17:06:25.088Z,15.45
2023-05-10T17:08:53.490Z,15.46
2023-05-10T17:11:23.279Z,15.46
2023-05-10T17:13:53.370Z,15.41
2023-05-10T17:16:22.307Z,15.38
2023-05-10T17:18:50.366Z,15.32
2023-05-10T17:21:18.514Z,15.31
2023-05-10T17:23:46.418Z,15.31
2023-05-10T17:26:14.421Z,15.33
2023-05-10T17:28:42.444Z,15.32
2023-05-10T17:31:10.627Z,15.29
2023-05-10T17:33:38.935Z,15.24
2023-05-10T17:36:07.050Z,15.13
2023-05-10T17:38:34.993Z,15.06
2023-05-10T17:41:03.526Z,15.09
2023-05-10T17:43:31.469Z,15.05
2023-05-10T17:45:59.628Z,15.02
2023-05-10T17:48:28.226Z,14.97
2023-05-10T17:50:56.322Z,14.91
2023-05-10T17:53:24.478Z,14.90
2023-05-10T17:55:53.157Z,14.82
2023-05-10T17:58:21.178Z,14.73
2023-05-10T18:00:49.298Z,14.71
2023-05-10T18:03:17.802Z,14.66
2023-05-10T18:05:47.104Z,14.67
2023-05-10T18:08:15.375Z,14.62
2023-05-10T18:10:43.533Z,14.57
2023-05-10T18:13:11.638Z,14.42
2023-05-10T18:15:39.648Z,14.39
2023-05-10T18:18:08.411Z,14.34
2023-05-10T18:20:36.548Z,14.32
2023-05-10T18:23:04.696Z,14.27
2023-05-10T18:25:32.784Z,14.23
2023-05-10T18:28:00.809Z,14.20
2023-05-10T18:30:29.183Z,14.06
2023-05-10T18:32:57.550Z,13.99
2023-05-10T18:35:25.582Z,13.95
2023-05-10T18:37:53.939Z,13.85
2023-05-10T18:40:22.297Z,13.78
2023-05-10T18:42:51.605Z,13.74
2023-05-10T18:45:19.824Z,13.74
2023-05-10T18:47:48.105Z,13.62
2023-05-10T18:50:18.415Z,13.44
2023-05-10T18:52:46.912Z,13.19
2023-05-10T18:55:15.215Z,13.10
2023-05-10T18:57:43.871Z,13.04
2023-05-10T19:00:13.592Z,13.05
2023-05-10T19:02:41.896Z,13.04
2023-05-10T19:05:10.811Z,13.02
2023-05-10T19:07:38.934Z,13.02
2023-05-10T19:10:07.680Z,13.00
2023-05-10T19:12:35.987Z,12.98
2023-05-10T19:15:04.099Z,12.91
2023-05-10T19:17:32.157Z,12.88
2023-05-10T19:20:02.691Z,12.88
2023-05-10T19:22:47.207Z,12.90
2023-05-10T19:25:19.650Z,12.91
2023-05-10T19:27:47.973Z,12.91
2023-05-10T19:30:16.078Z,12.85
2023-05-10T19:32:45.552Z,12.83
2023-05-10T19:35:15.914Z,12.83
2023-05-10T19:37:48.531Z,12.79
2023-05-10T19:40:17.492Z,12.77
2023-05-10T19:42:45.686Z,12.79
2023-05-10T19:45:13.856Z,12.77
2023-05-10T19:47:43.303Z,12.78
2023-05-10T19:50:11.796Z,12.78
2023-05-10T19:52:39.888Z,12.75
2023-05-10T19:55:08.652Z,12.72
2023-05-10T19:57:36.686Z,12.71
2023-05-10T20:00:06.211Z,12.71
2023-05-10T20:02:34.377Z,12.71
2023-05-10T20:05:02.370Z,12.68
2023-05-10T20:07:30.484Z,12.65
2023-05-10T20:09:58.489Z,12.65
2023-05-10T20:12:26.549Z,12.67
2023-05-10T20:14:54.564Z,12.69
2023-05-10T20:17:22.599Z,12.67
2023-05-10T20:19:50.572Z,12.67
2023-05-10T20:22:18.644Z,12.68
2023-05-10T20:24:46.869Z,12.67
2023-05-10T20:27:14.854Z,12.67
2023-05-10T20:29:42.945Z,12.67
2023-05-10T20:32:10.980Z,12.64
2023-05-10T20:34:38.996Z,12.61
2023-05-10T20:37:07.269Z,12.60
2023-05-10T20:39:35.280Z,12.58
2023-05-10T20:42:03.324Z,12.59
2023-05-10T20:44:31.297Z,12.59
2023-05-10T20:46:59.371Z,12.59
2023-05-10T20:49:27.488Z,12.58
2023-05-10T20:51:55.920Z,12.58
2023-05-10T20:54:25.736Z,12.57
2023-05-10T20:56:53.765Z,12.56
2023-05-10T20:59:22.726Z,12.55
2023-05-10T21:01:50.830Z,12.57
2023-05-10T21:04:18.937Z,12.57
2023-05-10T21:06:47.103Z,12.56
2023-05-10T21:09:15.108Z,12.56
2023-05-10T21:11:43.177Z,12.58
2023-05-10T21:14:11.705Z,12.56
2023-05-10T21:16:39.982Z,12.55
2023-05-10T21:19:08.678Z,12.56
2023-05-10T21:21:36.760Z,12.56
2023-05-10T21:24:04.980Z,12.57
2023-05-10T21:26:33.050Z,12.57
2023-05-10T21:29:01.071Z,12.54
2023-05-10T21:31:29.606Z,12.54
2023-05-10T21:33:58.473Z,12.55
2023-05-10T21:36:26.649Z,12.55
2023-05-10T21:38:54.856Z,12.55
2023-05-10T21:41:23.212Z,12.54
2023-05-10T21:43:51.288Z,12.54
2023-05-10T21:46:19.441Z,12.53
2023-05-10T21:48:47.597Z,12.52
2023-05-10T21:51:15.927Z,12.49
2023-05-10T21:53:44.208Z,12.50
2023-05-10T21:56:12.447Z,12.51
2023-05-10T21:58:40.434Z,12.49
2023-05-10T22:01:08.578Z,12.47
2023-05-10T22:03:36.630Z,12.48
2023-05-10T22:06:05.021Z,12.48
2023-05-10T22:08:33.072Z,12.48
2023-05-10T22:11:01.104Z,12.46
2023-05-10T22:13:29.183Z,12.46
2023-05-10T22:15:57.148Z,12.45
2023-05-10T22:18:25.237Z,12.46
2023-05-10T22:20:53.218Z,12.42
2023-05-10T22:23:21.304Z,12.41
2023-05-10T22:25:49.347Z,12.39
2023-05-10T22:28:17.421Z,12.28
2023-05-10T22:30:45.461Z,12.19
2023-05-10T22:33:13.452Z,12.08
2023-05-10T22:35:41.516Z,12.00
2023-05-10T22:38:09.506Z,11.95
2023-05-10T22:40:37.571Z,11.96
2023-05-10T22:43:05.764Z,11.89
2023-05-10T22:45:33.826Z,11.84
2023-05-10T22:48:02.053Z,11.84
2023-05-10T22:50:30.625Z,11.83
2023-05-10T22:52:58.595Z,11.82
2023-05-10T22:55:26.555Z,11.86
2023-05-10T22:57:54.653Z,11.88
2023-05-10T23:00:22.801Z,11.89
2023-05-10T23:02:50.934Z,11.92
2023-05-10T23:05:19.254Z,11.96
2023-05-10T23:07:49.724Z,11.95
2023-05-10T23:10:18.108Z,12.00
2023-05-10T23:12:46.346Z,11.97
2023-05-10T23:15:14.440Z,11.99
2023-05-10T23:17:42.715Z,11.94
2023-05-10T23:20:11.390Z,11.96
2023-05-10T23:22:39.493Z,11.98
2023-05-10T23:25:08.290Z,11.94
2023-05-10T23:27:36.304Z,11.93
2023-05-10T23:30:04.415Z,11.94
2023-05-10T23:32:32.445Z,11.91
2023-05-10T23:35:00.496Z,11.87
2023-05-10T23:37:29.248Z,11.85
2023-05-10T23:39:57.289Z,11.80
2023-05-10T23:42:25.356Z,11.81
2023-05-10T23:44:53.882Z,11.83
2023-05-10T23:47:21.962Z,11.81
2023-05-10T23:49:51.456Z,11.79
2023-05-10T23:52:19.618Z,11.80
2023-05-10T23:54:47.587Z,11.81
2023-05-10T23:57:15.836Z,11.78
2023-05-10T23:59:43.940Z,11.78
